Time;durP1;ratioP1;P1;durP2;ratioP2;P2;SDS_P1;SDS_P2;PMS_P1;PMS_P2;Temp;Humidity;BMP_temperature;BMP_pressure;BME280_temperature;BME280_humidity;BME280_pressure;Samples;Min_cycle;Max_cycle;Signal;HPM_P1;HPM_P2
2023/04/15 00:00:10;;;;;;;32.92;24.27;;;;;;;8.54;100.00;100044.53;4953976;28;20223;-65
2023/04/15 00:02:43;;;;;;;35.67;23.77;;;;;;;8.24;100.00;100050.34;4951013;29;20580;-66
2023/04/15 00:05:13;;;;;;;29.50;22.75;;;;;;;8.74;100.00;100042.63;4955848;29;20213;-67
2023/04/15 00:07:42;;;;;;;39.45;24.35;;;;;;;8.45;100.00;100041.25;4955595;29;20275;-67
2023/04/15 00:10:12;;;;;;;37.90;25.63;;;;;;;8.56;100.00;100042.47;4955868;28;20220;-68
2023/04/15 00:12:45;;;;;;;40.33;25.08;;;;;;;8.46;100.00;100047.47;4952233;28;20256;-66
2023/04/15 00:15:14;;;;;;;35.85;27.80;;;;;;;8.71;100.00;100041.19;4955269;29;20663;-67
2023/04/15 00:17:43;;;;;;;36.35;27.23;;;;;;;8.83;100.00;100037.84;4955368;28;20589;-66
2023/04/15 00:20:14;;;;;;;35.65;22.08;;;;;;;8.38;100.00;100044.97;4953474;29;20225;-67
2023/04/15 00:22:43;;;;;;;35.75;24.35;;;;;;;8.38;100.00;100045.78;4956104;29;20253;-66
2023/04/15 00:25:12;;;;;;;35.05;24.55;;;;;;;8.20;100.00;100038.31;4952759;29;20189;-67
2023/04/15 00:27:41;;;;;;;43.38;26.17;;;;;;;8.19;100.00;100043.91;4956027;29;20219;-67
2023/04/15 00:30:11;;;;;;;40.60;27.23;;;;;;;8.12;100.00;100035.00;4945990;29;20228;-67
2023/04/15 00:32:41;;;;;;;46.25;29.92;;;;;;;8.62;100.00;100031.66;4951394;29;20207;-66
2023/04/15 00:35:10;;;;;;;45.85;28.65;;;;;;;8.23;100.00;100032.50;4955753;29;20195;-66
2023/04/15 00:37:41;;;;;;;42.53;25.95;;;;;;;8.12;100.00;100030.44;4954538;28;20204;-66
2023/04/15 00:40:14;;;;;;;43.88;27.30;;;;;;;8.39;100.00;100035.84;4952414;29;20675;-67
2023/04/15 00:42:43;;;;;;;46.17;28.23;;;;;;;8.13;100.00;100037.47;4950811;29;20186;-66
2023/04/15 00:45:13;;;;;;;39.90;30.08;;;;;;;8.04;100.00;100030.63;4941334;29;20210;-67
2023/04/15 00:47:43;;;;;;;41.78;29.05;;;;;;;7.99;100.00;100027.72;4941237;29;20205;-65
2023/04/15 00:50:13;;;;;;;46.15;28.98;;;;;;;8.18;100.00;100026.91;4954047;29;20605;-68
2023/04/15 00:52:47;;;;;;;48.50;29.58;;;;;;;8.04;100.00;100022.53;4940553;29;20225;-66
2023/04/15 00:55:18;;;;;;;48.90;32.28;;;;;;;8.06;100.00;100023.19;4952591;29;20203;-67
2023/04/15 00:57:47;;;;;;;43.17;27.65;;;;;;;8.01;100.00;100025.66;4944116;29;20210;-67
2023/04/15 01:00:17;;;;;;;38.10;25.30;;;;;;;8.74;100.00;100026.47;4955479;28;20224;-66
2023/04/15 01:02:47;;;;;;;50.92;33.33;;;;;;;8.86;100.00;100023.94;4936033;29;20209;-68
2023/04/15 01:05:17;;;;;;;45.67;28.08;;;;;;;8.42;100.00;100020.09;4947915;29;20311;-67
2023/04/15 01:07:47;;;;;;;41.15;26.13;;;;;;;8.34;100.00;100016.75;4951936;28;20221;-67
2023/04/15 01:10:17;;;;;;;51.28;32.13;;;;;;;8.27;100.00;100020.28;4929320;29;20314;-67
2023/04/15 01:12:46;;;;;;;47.13;30.83;;;;;;;8.27;100.00;100016.75;4948003;29;20211;-66
2023/04/15 01:15:16;;;;;;;49.03;31.40;;;;;;;8.12;100.00;100019.66;4953745;29;20199;-66
2023/04/15 01:17:46;;;;;;;41.28;27.08;;;;;;;8.19;100.00;100015.09;4950217;28;20233;-66
2023/04/15 01:20:15;;;;;;;50.58;31.35;;;;;;;8.11;100.00;100015.31;4953660;29;20213;-66
2023/04/15 01:22:45;;;;;;;48.38;31.15;;;;;;;8.20;100.00;100015.91;4953701;29;20276;-67
2023/04/15 01:25:20;;;;;;;44.30;29.45;;;;;;;8.08;100.00;100013.03;4937894;29;20206;-67
2023/04/15 01:27:50;;;;;;;54.67;34.42;;;;;;;8.26;100.00;100026.72;4953032;29;20195;-68
2023/04/15 01:30:20;;;;;;;51.55;31.75;;;;;;;8.12;100.00;100016.97;4931343;29;20225;-68
2023/04/15 01:32:49;;;;;;;48.38;29.23;;;;;;;8.10;100.00;100016.34;4937929;29;20557;-67
2023/04/15 01:35:20;;;;;;;48.75;30.55;;;;;;;8.21;100.00;100017.59;4937428;29;20198;-67
2023/04/15 01:37:50;;;;;;;46.70;30.05;;;;;;;8.42;100.00;100011.19;4938136;29;20199;-67
2023/04/15 01:40:19;;;;;;;53.28;32.42;;;;;;;8.53;100.00;100007.81;4927872;28;20812;-68
2023/04/15 01:42:48;;;;;;;56.92;31.92;;;;;;;8.58;100.00;100008.03;4952384;29;20237;-67
2023/04/15 01:45:19;;;;;;;46.72;30.10;;;;;;;8.39;100.00;100003.50;4949247;28;20215;-68
2023/04/15 01:47:48;;;;;;;57.72;32.13;;;;;;;8.38;100.00;100004.53;4953433;29;20304;-67
2023/04/15 01:50:17;;;;;;;50.00;31.95;;;;;;;8.30;100.00;100000.19;4937030;28;20225;-67
2023/04/15 01:52:47;;;;;;;53.97;31.48;;;;;;;8.18;100.00;100013.41;4957743;29;20223;-67
2023/04/15 01:55:16;;;;;;;58.05;34.22;;;;;;;8.24;100.00;100011.75;4941389;29;20292;-66
2023/04/15 01:57:46;;;;;;;45.78;31.73;;;;;;;8.15;100.00;100013.84;4939655;29;20213;-68
2023/04/15 02:00:16;;;;;;;53.13;33.30;;;;;;;8.08;100.00;100001.44;4942906;28;20288;-66
2023/04/15 02:02:47;;;;;;;65.22;34.20;;;;;;;8.09;100.00;100005.75;4954975;29;20278;-67
2023/04/15 02:05:16;;;;;;;52.85;34.00;;;;;;;8.49;100.00;100001.19;4936269;29;20215;-66
2023/04/15 02:07:49;;;;;;;58.90;33.13;;;;;;;8.51;100.00;100005.34;4941098;29;20202;-67
2023/04/15 02:10:18;;;;;;;49.83;30.40;;;;;;;8.43;100.00;100000.16;4957101;28;20256;-66
2023/04/15 02:12:47;;;;;;;53.42;31.88;;;;;;;8.35;100.00;100000.41;4956567;28;20302;-66
2023/04/15 02:15:16;;;;;;;55.70;31.83;;;;;;;8.26;100.00;99999.75;4936704;29;20348;-66
2023/04/15 02:17:49;;;;;;;49.92;32.70;;;;;;;8.47;100.00;100001.41;4957639;29;20220;-67
2023/04/15 02:20:19;;;;;;;51.42;32.42;;;;;;;8.26;100.00;99997.06;4938115;29;20767;-67
2023/04/15 02:22:49;;;;;;;47.08;29.75;;;;;;;8.25;100.00;100003.47;4956552;29;20229;-67
2023/04/15 02:25:19;;;;;;;52.30;30.38;;;;;;;8.77;100.00;99999.06;4956076;29;20207;-66
2023/04/15 02:27:48;;;;;;;50.33;30.42;;;;;;;8.66;100.00;99994.34;4953402;29;20690;-66
2023/04/15 02:30:18;;;;;;;49.63;29.58;;;;;;;8.39;100.00;99998.94;4956413;29;20228;-67
2023/04/15 02:32:48;;;;;;;60.30;31.55;;;;;;;8.33;100.00;99998.97;4951628;29;20195;-67
2023/04/15 02:35:18;;;;;;;50.97;31.95;;;;;;;8.23;100.00;99992.06;4957043;29;20205;-66
2023/04/15 02:37:47;;;;;;;53.13;33.15;;;;;;;8.24;100.00;99991.03;4955973;28;20254;-67
2023/04/15 02:40:18;;;;;;;51.10;31.92;;;;;;;8.32;100.00;99995.44;4939284;29;20222;-66
2023/04/15 02:42:47;;;;;;;49.72;29.95;;;;;;;8.36;100.00;99995.84;4940099;29;20216;-68
2023/04/15 02:45:22;;;;;;;50.08;31.10;;;;;;;8.32;100.00;99994.59;4940770;29;20213;-67
2023/04/15 02:47:52;;;;;;;53.78;33.55;;;;;;;8.28;100.00;99997.66;4939218;29;20217;-68
2023/04/15 02:50:22;;;;;;;52.88;33.15;;;;;;;8.21;100.00;100002.25;4941087;29;20225;-67
2023/04/15 02:52:52;;;;;;;48.90;30.73;;;;;;;8.48;100.00;100003.06;4933928;29;20240;-68
2023/04/15 02:55:21;;;;;;;56.83;32.50;;;;;;;8.31;100.00;100003.72;4951040;28;20624;-68
2023/04/15 02:57:50;;;;;;;53.33;33.45;;;;;;;8.26;100.00;99998.94;4938992;29;20197;-67
2023/04/15 03:00:20;;;;;;;49.47;32.45;;;;;;;8.29;100.00;100007.44;4937705;29;20248;-67
2023/04/15 03:02:54;;;;;;;52.20;30.00;;;;;;;8.50;100.00;100003.69;4939894;29;20256;-65
2023/04/15 03:05:26;;;;;;;57.00;33.85;;;;;;;8.46;100.00;100015.09;4938157;29;20193;-66
2023/04/15 03:07:55;;;;;;;40.42;27.42;;;;;;;8.64;100.00;100017.97;4958495;28;20260;-65
2023/04/15 03:10:24;;;;;;;57.30;33.20;;;;;;;8.56;100.00;100016.34;4942936;29;20216;-66
2023/04/15 03:12:53;;;;;;;53.22;32.42;;;;;;;8.36;100.00;100010.16;4938193;29;20221;-64
2023/04/15 03:15:24;;;;;;;45.70;28.27;;;;;;;8.31;100.00;100009.09;4937936;29;20213;-66
2023/04/15 03:17:54;;;;;;;48.33;29.60;;;;;;;8.29;100.00;100003.88;4940118;29;20322;-65
2023/04/15 03:20:25;;;;;;;51.72;32.85;;;;;;;8.35;100.00;100008.47;4955511;28;20224;-67
2023/04/15 03:22:54;;;;;;;47.88;28.25;;;;;;;8.57;100.00;100007.19;4949065;29;20258;-66
2023/04/15 03:25:24;;;;;;;51.80;33.53;;;;;;;9.46;100.00;100011.84;4938505;29;20194;-67
2023/04/15 03:27:53;;;;;;;54.55;32.50;;;;;;;8.86;100.00;100010.47;4935379;29;20654;-67
2023/04/15 03:30:49;;;;;;;50.00;29.77;;;;;;;8.64;100.00;100017.97;4932328;29;20250;-66
2023/04/15 03:33:18;;;;;;;44.15;28.75;;;;;;;8.75;100.00;100013.81;4954461;29;20376;-67
2023/04/15 03:35:48;;;;;;;44.55;27.70;;;;;;;8.67;100.00;100014.84;4937321;29;20605;-66
2023/04/15 03:38:17;;;;;;;48.60;29.60;;;;;;;8.70;100.00;100012.56;4954458;29;20629;-65
2023/04/15 03:40:47;;;;;;;46.63;26.95;;;;;;;9.02;100.00;100013.50;4954529;29;20190;-66
2023/04/15 03:43:16;;;;;;;45.08;27.55;;;;;;;8.99;100.00;100013.94;4954549;28;20241;-66
2023/04/15 03:45:45;;;;;;;38.67;27.40;;;;;;;8.79;100.00;100015.03;4954547;28;20190;-66
2023/04/15 03:48:15;;;;;;;37.58;25.85;;;;;;;8.58;100.00;100013.41;4955903;28;20283;-67
2023/04/15 03:50:48;;;;;;;53.92;29.60;;;;;;;8.77;100.00;100015.25;4961944;28;20288;-66
2023/04/15 03:53:17;;;;;;;46.50;27.50;;;;;;;8.60;100.00;100000.56;4950805;29;20253;-67
2023/04/15 03:55:46;;;;;;;37.08;25.02;;;;;;;8.74;100.00;100010.28;4955446;29;20559;-67
2023/04/15 03:58:15;;;;;;;44.17;28.92;;;;;;;8.85;100.00;100008.78;4954509;29;20598;-67
2023/04/15 04:00:44;;;;;;;35.92;26.80;;;;;;;8.64;100.00;100009.88;4952988;29;20209;-67
2023/04/15 04:03:13;;;;;;;36.80;26.52;;;;;;;8.58;100.00;100013.41;4954913;29;20195;-66
2023/04/15 04:05:43;;;;;;;49.25;29.25;;;;;;;8.53;100.00;100016.75;4955342;29;20185;-67
2023/04/15 04:08:15;;;;;;;40.55;25.33;;;;;;;8.70;100.00;100011.75;4952802;28;20670;-67
2023/04/15 04:10:44;;;;;;;45.25;26.13;;;;;;;8.67;100.00;100022.94;4953001;29;20226;-66
2023/04/15 04:13:13;;;;;;;43.50;28.00;;;;;;;8.67;100.00;100021.06;4950019;28;20657;-67
2023/04/15 04:15:42;;;;;;;45.67;28.08;;;;;;;8.85;100.00;100023.13;4955791;29;20241;-65
2023/04/15 04:18:11;;;;;;;40.63;25.90;;;;;;;8.79;100.00;100029.34;4955262;28;20197;-67
2023/04/15 04:20:40;;;;;;;41.05;26.33;;;;;;;9.15;100.00;100024.22;4951288;28;20217;-66
2023/04/15 04:23:09;;;;;;;41.00;27.55;;;;;;;9.44;100.00;100019.34;4952065;29;20194;-67
2023/04/15 04:25:40;;;;;;;40.05;26.80;;;;;;;9.21;100.00;100024.44;4953109;29;20557;-68
2023/04/15 04:28:10;;;;;;;34.08;23.10;;;;;;;8.99;100.00;100022.03;4946321;29;20666;-66
2023/04/15 04:30:39;;;;;;;30.38;24.30;;;;;;;9.06;100.00;100022.00;4952628;28;20293;-67
2023/04/15 04:33:09;;;;;;;35.75;24.75;;;;;;;9.21;100.00;100024.44;4944745;29;20211;-67
2023/04/15 04:35:37;;;;;;;33.17;23.92;;;;;;;9.11;100.00;100030.28;4945514;29;20255;-67
2023/04/15 04:38:06;;;;;;;32.88;23.00;;;;;;;9.20;100.00;100028.19;4948336;29;20282;-67
2023/04/15 04:40:35;;;;;;;40.88;23.27;;;;;;;9.48;100.00;100026.81;4952925;29;20194;-66
2023/04/15 04:43:06;;;;;;;33.67;24.83;;;;;;;9.25;100.00;100031.03;4954127;29;20197;-68
2023/04/15 04:45:35;;;;;;;37.75;26.25;;;;;;;9.61;100.00;100025.88;4941913;29;20206;-66
2023/04/15 04:48:05;;;;;;;34.72;23.92;;;;;;;9.12;100.00;100027.38;4929396;28;20289;-66
2023/04/15 04:50:35;;;;;;;31.58;23.02;;;;;;;8.84;100.00;100040.34;4952181;29;20191;-66
2023/04/15 04:53:04;;;;;;;34.00;24.85;;;;;;;8.94;100.00;100035.34;4953742;29;20190;-68
2023/04/15 04:55:35;;;;;;;36.92;23.98;;;;;;;9.00;100.00;100039.88;4953136;29;20276;-66
2023/04/15 04:58:06;;;;;;;29.58;23.38;;;;;;;8.98;100.00;100036.56;4949858;29;20632;-67
2023/04/15 05:00:36;;;;;;;38.25;24.70;;;;;;;9.14;100.00;100041.50;4953768;29;20218;-67
2023/04/15 05:03:05;;;;;;;34.47;22.70;;;;;;;8.94;100.00;100051.53;4952213;29;20628;-66
2023/04/15 05:05:35;;;;;;;36.78;25.73;;;;;;;9.32;100.00;100039.97;4953953;29;20272;-67
2023/04/15 05:08:05;;;;;;;31.67;22.38;;;;;;;9.16;100.00;100047.50;4953926;29;20191;-67
2023/04/15 05:10:34;;;;;;;33.75;23.40;;;;;;;9.12;100.00;100043.56;4936505;29;20197;-68
2023/04/15 05:13:05;;;;;;;31.02;22.67;;;;;;;9.19;100.00;100048.94;4945847;29;20195;-68
2023/04/15 05:15:35;;;;;;;28.63;23.40;;;;;;;9.03;100.00;100055.66;4952084;29;20210;-67
2023/04/15 05:18:05;;;;;;;33.17;24.10;;;;;;;8.93;100.00;100049.84;4946447;29;20222;-67
2023/04/15 05:20:34;;;;;;;31.40;24.45;;;;;;;8.88;100.00;100051.53;4946293;29;20198;-66
2023/04/15 05:23:03;;;;;;;34.78;26.17;;;;;;;9.03;100.00;100052.13;4952814;29;20554;-67
2023/04/15 05:25:32;;;;;;;36.58;23.83;;;;;;;8.98;100.00;100052.75;4950924;29;20190;-68
2023/04/15 05:28:01;;;;;;;36.22;25.38;;;;;;;8.95;100.00;100053.19;4951973;28;20868;-67
2023/04/15 05:30:31;;;;;;;35.42;25.17;;;;;;;8.94;100.00;100066.88;4948573;29;20208;-67
2023/04/15 05:33:01;;;;;;;40.60;27.85;;;;;;;8.91;100.00;100062.72;4951591;29;20233;-69
2023/04/15 05:35:30;;;;;;;35.67;25.83;;;;;;;8.91;100.00;100067.28;4948382;29;20266;-68
2023/04/15 05:37:59;;;;;;;37.65;25.90;;;;;;;8.97;100.00;100061.88;4941736;29;20261;-67
2023/04/15 05:40:28;;;;;;;46.03;26.42;;;;;;;8.97;100.00;100067.28;4933803;29;20193;-66
2023/04/15 05:42:57;;;;;;;33.85;23.08;;;;;;;9.24;100.00;100067.22;4953097;29;20469;-68
2023/04/15 05:45:26;;;;;;;34.50;24.83;;;;;;;9.27;100.00;100061.38;4944424;29;20727;-67
2023/04/15 05:47:56;;;;;;;30.92;25.45;;;;;;;9.27;100.00;100066.75;4947782;29;20202;-67
2023/04/15 05:50:26;;;;;;;39.17;24.27;;;;;;;9.41;100.00;100068.38;4953144;29;20198;-67
2023/04/15 05:52:55;;;;;;;32.60;23.02;;;;;;;9.58;100.00;100064.16;4952709;29;20236;-66
2023/04/15 05:55:24;;;;;;;31.52;22.77;;;;;;;9.46;100.00;100071.25;4952451;29;20219;-66
2023/04/15 05:57:53;;;;;;;29.13;20.90;;;;;;;9.42;100.00;100065.47;4952624;29;20277;-68
2023/04/15 06:00:22;;;;;;;28.52;21.98;;;;;;;9.88;100.00;100065.19;4949834;28;20215;-67
2023/04/15 06:02:51;;;;;;;37.20;30.10;;;;;;;9.94;100.00;100069.75;4952031;29;20198;-66
2023/04/15 06:05:23;;;;;;;28.33;25.25;;;;;;;9.90;100.00;100068.53;4950154;29;20193;-66
2023/04/15 06:07:52;;;;;;;41.67;34.35;;;;;;;9.84;100.00;100069.38;4952059;29;20200;-66
2023/04/15 06:10:20;;;;;;;31.00;24.73;;;;;;;10.01;100.00;100067.84;4951976;28;20225;-64
2023/04/15 06:12:50;;;;;;;30.73;20.83;;;;;;;10.63;100.00;100073.41;4950528;28;20249;-66
2023/04/15 06:15:19;;;;;;;24.90;19.90;;;;;;;10.58;100.00;100070.53;4952269;29;20197;-66
2023/04/15 06:17:48;;;;;;;27.33;23.30;;;;;;;10.26;100.00;100075.19;4945548;29;20417;-66
2023/04/15 06:20:17;;;;;;;29.30;22.30;;;;;;;10.04;100.00;100069.25;4947655;29;20993;-67
2023/04/15 06:22:47;;;;;;;25.20;18.73;;;;;;;10.24;100.00;100071.84;4952819;29;20448;-66
2023/04/15 06:25:17;;;;;;;20.63;18.30;;;;;;;10.16;100.00;100069.44;4952721;29;20501;-67
2023/04/15 06:27:46;;;;;;;26.13;21.13;;;;;;;10.15;100.00;100073.13;4951719;29;20474;-68
2023/04/15 06:30:15;;;;;;;24.37;18.37;;;;;;;10.17;100.00;100073.75;4952306;28;20472;-67
2023/04/15 06:32:45;;;;;;;22.13;18.77;;;;;;;10.20;100.00;100074.16;4950587;29;20403;-67
2023/04/15 06:35:14;;;;;;;24.53;19.13;;;;;;;10.17;100.00;100068.34;4952928;28;20204;-67
2023/04/15 06:37:44;;;;;;;24.17;18.83;;;;;;;10.22;100.00;100076.63;4954419;29;20431;-67
2023/04/15 06:40:14;;;;;;;18.10;15.37;;;;;;;10.29;100.00;100077.44;4951250;29;20310;-66
2023/04/15 06:42:44;;;;;;;23.33;17.40;;;;;;;10.22;100.00;100076.63;4954728;29;20528;-66
2023/04/15 06:45:13;;;;;;;22.70;17.53;;;;;;;10.31;100.00;100080.75;4956018;29;21005;-67
2023/04/15 06:47:42;;;;;;;22.48;17.52;;;;;;;10.35;100.00;100087.38;4956534;29;20401;-65
2023/04/15 06:50:11;;;;;;;24.27;20.67;;;;;;;10.45;100.00;100085.00;4951903;29;20237;-67
2023/04/15 06:52:41;;;;;;;20.20;17.00;;;;;;;10.57;100.00;100085.09;4956198;29;20444;-68
2023/04/15 06:55:10;;;;;;;22.13;18.92;;;;;;;10.83;100.00;100093.81;4954263;29;21064;-68
2023/04/15 06:57:40;;;;;;;23.07;17.97;;;;;;;10.56;100.00;100089.66;4939208;29;20208;-69
2023/04/15 07:00:11;;;;;;;21.52;16.73;;;;;;;10.44;100.00;100103.09;4935342;29;20804;-68
2023/04/15 07:02:40;;;;;;;19.17;15.93;;;;;;;10.40;100.00;100101.91;4953156;29;20224;-68
2023/04/15 07:05:10;;;;;;;19.27;15.30;;;;;;;10.48;100.00;100108.91;4955629;28;20611;-68
2023/04/15 07:07:39;;;;;;;17.17;13.90;;;;;;;10.40;100.00;100109.19;4955407;28;20198;-67
2023/04/15 07:10:10;;;;;;;18.83;15.98;;;;;;;10.37;100.00;100117.72;4951292;29;20449;-68
2023/04/15 07:12:41;;;;;;;21.97;16.30;;;;;;;10.43;100.00;100117.66;4957121;29;20542;-66
2023/04/15 07:15:11;;;;;;;18.27;15.80;;;;;;;10.48;100.00;100119.72;4956452;29;20868;-68
2023/04/15 07:17:41;;;;;;;20.70;16.63;;;;;;;10.67;100.00;100124.13;4956538;29;20289;-67
2023/04/15 07:20:12;;;;;;;16.83;14.43;;;;;;;10.97;99.48;100129.69;4957601;29;20480;-67
2023/04/15 07:22:42;;;;;;;16.60;14.85;;;;;;;10.74;98.23;100133.03;4942816;29;20427;-65
2023/04/15 07:25:11;;;;;;;17.03;15.30;;;;;;;10.47;99.48;100131.56;4957038;29;20198;-66
2023/04/15 07:27:41;;;;;;;17.15;15.15;;;;;;;10.39;100.00;100137.25;4957402;29;20858;-67
2023/04/15 07:30:11;;;;;;;16.45;14.60;;;;;;;10.37;100.00;100133.94;4951024;29;20228;-67
2023/04/15 07:32:41;;;;;;;19.77;15.27;;;;;;;10.48;100.00;100143.22;4955885;29;20194;-67
2023/04/15 07:35:10;;;;;;;19.88;15.05;;;;;;;10.78;99.66;100139.66;4957701;29;20218;-66
2023/04/15 07:37:40;;;;;;;18.60;16.10;;;;;;;11.12;98.33;100142.88;4955936;29;20621;-67
2023/04/15 07:40:10;;;;;;;18.52;15.50;;;;;;;10.79;99.22;100146.72;4954636;29;20424;-67
2023/04/15 07:42:41;;;;;;;17.43;15.23;;;;;;;10.79;99.43;100149.44;4954916;29;20278;-67
2023/04/15 07:45:11;;;;;;;14.60;13.10;;;;;;;11.38;99.14;100152.56;4948871;29;20410;-67
2023/04/15 07:47:41;;;;;;;16.50;14.13;;;;;;;11.22;96.73;100154.03;4953360;28;20406;-67
2023/04/15 07:50:11;;;;;;;17.60;15.80;;;;;;;10.95;98.62;100153.44;4953543;28;20436;-67
2023/04/15 07:52:44;;;;;;;21.47;16.90;;;;;;;10.71;98.64;100152.41;4951820;29;20864;-68
2023/04/15 07:55:14;;;;;;;17.38;15.32;;;;;;;10.69;99.16;100151.81;4955393;29;20474;-67
2023/04/15 07:57:46;;;;;;;18.60;15.03;;;;;;;10.50;100.00;100144.69;4926985;29;20634;-66
2023/04/15 08:00:16;;;;;;;19.30;16.27;;;;;;;10.56;100.00;100148.34;4954281;28;20531;-66
2023/04/15 08:02:45;;;;;;;22.20;15.47;;;;;;;10.61;100.00;100156.66;4953036;29;20448;-66
2023/04/15 08:05:15;;;;;;;22.30;15.50;;;;;;;10.53;100.00;100154.22;4949155;29;20410;-67
2023/04/15 08:07:45;;;;;;;16.13;14.38;;;;;;;10.31;100.00;100156.47;4953597;29;20525;-67
2023/04/15 08:10:14;;;;;;;17.03;15.33;;;;;;;10.39;100.00;100148.91;4949059;29;20214;-67
2023/04/15 08:12:47;;;;;;;19.60;15.53;;;;;;;10.33;100.00;100162.47;4953035;29;20463;-66
2023/04/15 08:15:17;;;;;;;20.88;16.80;;;;;;;10.42;100.00;100161.16;4948677;29;20466;-67
2023/04/15 08:17:50;;;;;;;16.63;14.93;;;;;;;10.71;100.00;100162.38;4953059;29;20657;-68
2023/04/15 08:20:19;;;;;;;17.87;15.97;;;;;;;10.45;99.84;100166.97;4950511;28;20441;-68
2023/04/15 08:22:50;;;;;;;18.90;16.93;;;;;;;10.52;100.00;100172.31;4954771;29;20500;-66
2023/04/15 08:25:20;;;;;;;20.80;17.23;;;;;;;10.31;100.00;100168.09;4954406;29;20409;-66
2023/04/15 08:27:51;;;;;;;27.70;16.40;;;;;;;10.22;100.00;100174.81;4955093;29;20198;-66
2023/04/15 08:30:20;;;;;;;20.20;16.58;;;;;;;10.25;100.00;100173.56;4954331;28;20218;-67
2023/04/15 08:32:50;;;;;;;15.77;14.00;;;;;;;10.57;100.00;100172.50;4954194;28;20680;-65
2023/04/15 08:35:20;;;;;;;19.07;15.37;;;;;;;10.69;100.00;100172.63;4952795;29;20466;-66
2023/04/15 08:37:49;;;;;;;18.03;16.13;;;;;;;10.74;100.00;100179.03;4953742;29;20483;-66
2023/04/15 08:40:18;;;;;;;20.93;16.57;;;;;;;10.61;100.00;100172.88;4953962;28;20447;-66
2023/04/15 08:42:53;;;;;;;21.40;17.80;;;;;;;10.58;100.00;100173.31;4953517;29;20410;-66
2023/04/15 08:45:23;;;;;;;16.37;14.63;;;;;;;10.63;100.00;100184.31;4951508;29;20499;-65
2023/04/15 08:47:56;;;;;;;20.23;16.63;;;;;;;10.57;100.00;100177.91;4953433;29;20441;-65
2023/04/15 08:50:26;;;;;;;17.93;15.63;;;;;;;10.51;100.00;100184.19;4954107;28;20485;-67
2023/04/15 08:52:56;;;;;;;20.17;17.27;;;;;;;10.50;100.00;100182.56;4942091;29;20720;-66
2023/04/15 08:55:28;;;;;;;19.80;17.13;;;;;;;10.58;100.00;100186.84;4953906;29;20435;-67
2023/04/15 08:57:59;;;;;;;18.45;16.60;;;;;;;10.57;100.00;100186.03;4953923;28;20478;-68
2023/04/15 09:00:29;;;;;;;20.00;17.07;;;;;;;10.53;100.00;100186.69;4951437;29;20202;-66
2023/04/15 09:02:59;;;;;;;20.65;17.55;;;;;;;10.60;100.00;100190.19;4948029;29;20412;-66
2023/04/15 09:05:31;;;;;;;20.07;17.73;;;;;;;10.66;100.00;100195.53;4952627;29;20625;-66
2023/04/15 09:08:00;;;;;;;22.87;17.90;;;;;;;10.54;100.00;100194.59;4954916;29;20431;-66
2023/04/15 09:10:29;;;;;;;18.80;16.77;;;;;;;10.63;100.00;100193.28;4951982;29;20453;-68
2023/04/15 09:13:00;;;;;;;20.50;17.10;;;;;;;10.65;100.00;100190.34;4953218;29;20449;-65
2023/04/15 09:15:31;;;;;;;17.93;16.07;;;;;;;10.68;100.00;100196.16;4951454;29;20525;-68
2023/04/15 09:18:00;;;;;;;19.13;17.27;;;;;;;10.61;100.00;100195.34;4953050;29;20474;-67
2023/04/15 09:20:29;;;;;;;19.67;17.57;;;;;;;10.63;100.00;100198.69;4947602;29;20408;-69
2023/04/15 09:22:58;;;;;;;19.60;17.60;;;;;;;10.73;100.00;100198.19;4953027;29;21029;-66
2023/04/15 09:25:31;;;;;;;19.30;16.93;;;;;;;10.71;100.00;100203.81;4953127;29;20509;-67
2023/04/15 09:28:05;;;;;;;20.83;16.03;;;;;;;10.75;100.00;100202.31;4944899;29;20413;-68
2023/04/15 09:30:34;;;;;;;23.27;15.60;;;;;;;10.74;100.00;100200.69;4949229;29;20486;-65
2023/04/15 09:33:06;;;;;;;18.37;16.47;;;;;;;10.65;100.00;100209.28;4952812;29;20776;-66
2023/04/15 09:35:36;;;;;;;18.43;15.70;;;;;;;10.68;100.00;100212.38;4953589;29;20420;-66
2023/04/15 09:38:07;;;;;;;18.87;16.20;;;;;;;10.61;100.00;100213.47;4928795;29;20474;-65
2023/04/15 09:40:38;;;;;;;20.70;16.30;;;;;;;10.53;100.00;100209.16;4950845;29;20491;-65
2023/04/15 09:43:11;;;;;;;19.65;16.70;;;;;;;10.48;100.00;100217.09;4949756;29;20933;-66
2023/04/15 09:45:49;;;;;;;21.73;16.10;;;;;;;10.52;100.00;100223.72;4953211;29;20250;-64
2023/04/15 09:48:20;;;;;;;17.23;15.43;;;;;;;10.60;100.00;100226.16;4949535;29;20944;-66
2023/04/15 09:50:52;;;;;;;17.30;15.53;;;;;;;10.56;100.00;100218.69;4953460;29;20413;-65
2023/04/15 09:53:22;;;;;;;17.37;15.33;;;;;;;10.59;100.00;100224.53;4947568;29;20518;-66
2023/04/15 09:55:53;;;;;;;16.80;15.10;;;;;;;10.55;100.00;100226.00;4943433;29;20469;-65
2023/04/15 09:58:25;;;;;;;27.17;22.13;;;;;;;10.57;100.00;100229.31;4958677;23;20472;-71
2023/04/15 10:00:56;;;;;;;18.90;15.30;;;;;;;10.77;100.00;100237.28;4936733;29;20463;-71
2023/04/15 10:03:26;;;;;;;19.70;17.07;;;;;;;10.72;100.00;100235.25;4940992;29;20417;-73
2023/04/15 10:05:58;;;;;;;21.80;17.67;;;;;;;10.55;100.00;100238.72;4949891;29;20414;-72
2023/04/15 10:08:29;;;;;;;18.63;16.80;;;;;;;10.62;100.00;100234.91;4951638;29;20451;-72
2023/04/15 10:10:58;;;;;;;17.57;15.53;;;;;;;10.56;100.00;100234.94;4942186;29;20443;-75
2023/04/15 10:13:34;;;;;;;24.03;17.20;;;;;;;10.50;100.00;100235.81;4947158;29;20435;-74
2023/04/15 10:16:07;;;;;;;19.63;16.93;;;;;;;10.61;100.00;100248.63;4948989;29;20422;-72
2023/04/15 10:18:38;;;;;;;20.10;18.00;;;;;;;10.65;100.00;100250.69;4947982;29;20475;-69
2023/04/15 10:21:09;;;;;;;17.33;15.53;;;;;;;10.58;100.00;100243.66;4945722;29;20470;-73
2023/04/15 10:23:39;;;;;;;22.83;17.20;;;;;;;10.48;100.00;100249.56;4949307;29;20425;-73
2023/04/15 10:26:11;;;;;;;18.90;17.10;;;;;;;10.47;100.00;100242.47;4945170;29;20431;-72
2023/04/15 10:28:41;;;;;;;20.43;17.70;;;;;;;10.53;100.00;100247.03;4947395;29;20928;-73
2023/04/15 10:31:13;;;;;;;19.57;17.67;;;;;;;10.54;100.00;100250.56;4941107;29;20413;-72
2023/04/15 10:33:44;;;;;;;20.33;17.30;;;;;;;10.57;100.00;100247.41;4936862;29;20467;-70
2023/04/15 10:36:14;;;;;;;17.83;16.03;;;;;;;10.59;100.00;100251.59;4939509;29;20944;-73
2023/04/15 10:38:44;;;;;;;17.83;15.93;;;;;;;10.64;100.00;100254.47;4940663;29;20512;-71
2023/04/15 10:41:16;;;;;;;19.03;17.03;;;;;;;10.89;100.00;100249.88;4939048;29;21002;-71
2023/04/15 10:43:54;;;;;;;20.57;15.73;;;;;;;10.80;100.00;100251.22;4940395;29;20469;-73
2023/04/15 10:46:34;;;;;;;20.27;16.17;;;;;;;11.01;100.00;100260.00;4946233;29;20430;-71
2023/04/15 10:49:09;;;;;;;18.07;15.43;;;;;;;10.78;100.00;100261.44;4945898;29;20861;-71
2023/04/15 10:51:41;;;;;;;16.23;14.53;;;;;;;10.72;100.00;100256.91;4951036;29;20496;-71
2023/04/15 10:54:15;;;;;;;19.57;16.97;;;;;;;10.78;100.00;100263.31;4939698;29;20414;-72
2023/04/15 10:56:44;;;;;;;21.20;18.13;;;;;;;10.83;100.00;100264.31;4944832;29;20449;-73
2023/04/15 10:59:16;;;;;;;20.87;15.73;;;;;;;10.86;100.00;100263.03;4951860;29;20460;-72
2023/04/15 11:01:58;;;;;;;17.70;15.53;;;;;;;10.89;100.00;100266.13;4938664;29;20448;-69
2023/04/15 11:04:57;;;;;;;18.50;16.07;;;;;;;10.83;100.00;100268.91;4941290;29;20437;-72
2023/04/15 11:07:50;;;;;;;19.27;16.10;;;;;;;10.92;100.00;100266.75;4939381;29;20894;-73
2023/04/15 11:10:53;;;;;;;17.63;15.80;;;;;;;10.94;100.00;100272.78;4944681;29;20433;-72
2023/04/15 11:13:26;;;;;;;19.92;15.65;;;;;;;11.02;100.00;100284.16;4925079;29;20455;-72
2023/04/15 11:16:01;;;;;;;17.33;15.50;;;;;;;10.90;100.00;100286.75;4925120;29;20555;-71
2023/04/15 11:18:33;;;;;;;17.90;16.00;;;;;;;10.87;100.00;100280.94;4944420;29;20464;-74
2023/04/15 11:21:04;;;;;;;17.43;15.50;;;;;;;10.83;100.00;100285.13;4937839;29;20930;-71